sensor_id;sensor_type;location;lat;lon;timestamp;P1;durP1;ratioP1;P2;durP2;ratioP2
64375;SDS011;50700;55.416;12.952;2023-02-20T00:00:32;7.40;;;1.23;;
64375;SDS011;50700;55.416;12.952;2023-02-20T00:02:58;7.50;;;1.45;;
64375;SDS011;50700;55.416;12.952;2023-02-20T00:05:25;4.25;;;1.00;;
64375;SDS011;50700;55.416;12.952;2023-02-20T00:07:51;5.30;;;1.20;;
64375;SDS011;50700;55.416;12.952;2023-02-20T00:10:17;1.35;;;0.93;;
64375;SDS011;50700;55.416;12.952;2023-02-20T00:12:44;4.22;;;1.15;;
64375;SDS011;50700;55.416;12.952;2023-02-20T00:15:11;4.32;;;1.25;;
64375;SDS011;50700;55.416;12.952;2023-02-20T00:17:38;3.42;;;0.90;;
64375;SDS011;50700;55.416;12.952;2023-02-20T00:20:05;6.97;;;1.08;;
64375;SDS011;50700;55.416;12.952;2023-02-20T00:22:31;2.80;;;1.10;;
64375;SDS011;50700;55.416;12.952;2023-02-20T00:24:57;3.88;;;1.10;;
64375;SDS011;50700;55.416;12.952;2023-02-20T00:27:23;5.75;;;1.30;;
64375;SDS011;50700;55.416;12.952;2023-02-20T00:29:49;2.72;;;0.75;;
64375;SDS011;50700;55.416;12.952;2023-02-20T00:32:16;6.43;;;1.80;;
64375;SDS011;50700;55.416;12.952;2023-02-20T00:34:42;4.15;;;1.10;;
64375;SDS011;50700;55.416;12.952;2023-02-20T00:37:08;4.43;;;1.35;;
64375;SDS011;50700;55.416;12.952;2023-02-20T00:39:34;2.92;;;0.85;;
64375;SDS011;50700;55.416;12.952;2023-02-20T00:42:00;5.50;;;1.17;;
64375;SDS011;50700;55.416;12.952;2023-02-20T00:44:27;2.53;;;0.90;;
64375;SDS011;50700;55.416;12.952;2023-02-20T00:46:53;4.18;;;1.05;;
64375;SDS011;50700;55.416;12.952;2023-02-20T00:49:19;1.95;;;0.98;;
64375;SDS011;50700;55.416;12.952;2023-02-20T00:51:45;2.28;;;0.93;;
64375;SDS011;50700;55.416;12.952;2023-02-20T00:54:11;5.55;;;0.82;;
64375;SDS011;50700;55.416;12.952;2023-02-20T00:56:38;9.45;;;2.58;;
64375;SDS011;50700;55.416;12.952;2023-02-20T00:59:04;5.78;;;1.10;;
64375;SDS011;50700;55.416;12.952;2023-02-20T01:01:30;4.40;;;1.33;;
64375;SDS011;50700;55.416;12.952;2023-02-20T01:03:56;7.03;;;1.20;;
64375;SDS011;50700;55.416;12.952;2023-02-20T01:06:22;8.90;;;1.45;;
64375;SDS011;50700;55.416;12.952;2023-02-20T01:08:49;1.40;;;0.90;;
64375;SDS011;50700;55.416;12.952;2023-02-20T01:11:15;5.22;;;1.25;;
64375;SDS011;50700;55.416;12.952;2023-02-20T01:13:41;2.25;;;1.08;;
64375;SDS011;50700;55.416;12.952;2023-02-20T01:16:07;9.32;;;1.48;;
64375;SDS011;50700;55.416;12.952;2023-02-20T01:18:34;3.15;;;1.10;;
64375;SDS011;50700;55.416;12.952;2023-02-20T01:21:00;5.22;;;1.08;;
64375;SDS011;50700;55.416;12.952;2023-02-20T01:23:26;7.78;;;1.75;;
64375;SDS011;50700;55.416;12.952;2023-02-20T01:25:52;6.50;;;1.40;;
64375;SDS011;50700;55.416;12.952;2023-02-20T01:28:18;6.50;;;1.27;;
64375;SDS011;50700;55.416;12.952;2023-02-20T01:30:44;3.67;;;1.38;;
64375;SDS011;50700;55.416;12.952;2023-02-20T01:33:11;7.28;;;1.63;;
64375;SDS011;50700;55.416;12.952;2023-02-20T01:35:37;9.10;;;1.60;;
64375;SDS011;50700;55.416;12.952;2023-02-20T01:38:03;12.18;;;1.58;;
64375;SDS011;50700;55.416;12.952;2023-02-20T01:40:31;9.30;;;1.48;;
64375;SDS011;50700;55.416;12.952;2023-02-20T01:42:57;3.10;;;1.58;;
64375;SDS011;50700;55.416;12.952;2023-02-20T01:47:51;1.55;;;1.10;;
64375;SDS011;50700;55.416;12.952;2023-02-20T01:50:19;3.72;;;1.30;;
64375;SDS011;50700;55.416;12.952;2023-02-20T01:52:47;12.82;;;2.55;;
64375;SDS011;50700;55.416;12.952;2023-02-20T01:55:25;3.08;;;0.95;;
64375;SDS011;50700;55.416;12.952;2023-02-20T01:57:54;5.50;;;1.45;;
64375;SDS011;50700;55.416;12.952;2023-02-20T02:00:22;7.80;;;1.35;;
64375;SDS011;50700;55.416;12.952;2023-02-20T02:02:55;5.15;;;1.45;;
64375;SDS011;50700;55.416;12.952;2023-02-20T02:05:23;4.80;;;1.45;;
64375;SDS011;50700;55.416;12.952;2023-02-20T02:07:49;6.43;;;1.33;;
64375;SDS011;50700;55.416;12.952;2023-02-20T02:10:18;2.60;;;1.00;;
64375;SDS011;50700;55.416;12.952;2023-02-20T02:12:46;6.95;;;1.50;;
64375;SDS011;50700;55.416;12.952;2023-02-20T02:15:14;6.95;;;1.20;;
64375;SDS011;50700;55.416;12.952;2023-02-20T02:25:55;2.83;;;1.13;;
64375;SDS011;50700;55.416;12.952;2023-02-20T02:36:25;7.82;;;1.85;;
64375;SDS011;50700;55.416;12.952;2023-02-20T02:46:35;7.13;;;1.67;;
64375;SDS011;50700;55.416;12.952;2023-02-20T02:49:13;9.25;;;1.50;;
64375;SDS011;50700;55.416;12.952;2023-02-20T02:51:42;4.97;;;1.42;;
64375;SDS011;50700;55.416;12.952;2023-02-20T02:54:18;8.95;;;2.20;;
64375;SDS011;50700;55.416;12.952;2023-02-20T02:56:47;7.03;;;1.55;;
64375;SDS011;50700;55.416;12.952;2023-02-20T02:59:24;8.20;;;2.20;;
64375;SDS011;50700;55.416;12.952;2023-02-20T03:01:56;12.23;;;2.47;;
64375;SDS011;50700;55.416;12.952;2023-02-20T03:04:24;9.37;;;2.90;;
64375;SDS011;50700;55.416;12.952;2023-02-20T03:06:53;6.40;;;2.28;;
64375;SDS011;50700;55.416;12.952;2023-02-20T03:09:24;9.75;;;2.10;;
64375;SDS011;50700;55.416;12.952;2023-02-20T03:11:52;6.25;;;2.53;;
64375;SDS011;50700;55.416;12.952;2023-02-20T03:14:20;10.70;;;2.53;;
64375;SDS011;50700;55.416;12.952;2023-02-20T03:19:51;13.90;;;2.60;;
64375;SDS011;50700;55.416;12.952;2023-02-20T03:22:34;8.32;;;3.17;;
64375;SDS011;50700;55.416;12.952;2023-02-20T03:25:06;12.18;;;3.30;;
64375;SDS011;50700;55.416;12.952;2023-02-20T03:27:37;10.38;;;3.47;;
64375;SDS011;50700;55.416;12.952;2023-02-20T03:30:13;9.57;;;3.88;;
64375;SDS011;50700;55.416;12.952;2023-02-20T03:32:41;11.43;;;3.83;;
64375;SDS011;50700;55.416;12.952;2023-02-20T03:35:28;15.75;;;3.78;;
64375;SDS011;50700;55.416;12.952;2023-02-20T03:38:15;10.63;;;3.75;;
64375;SDS011;50700;55.416;12.952;2023-02-20T03:41:01;15.43;;;3.60;;
64375;SDS011;50700;55.416;12.952;2023-02-20T03:43:48;13.02;;;3.90;;
64375;SDS011;50700;55.416;12.952;2023-02-20T03:46:17;14.68;;;4.78;;
64375;SDS011;50700;55.416;12.952;2023-02-20T03:48:49;18.08;;;3.85;;
64375;SDS011;50700;55.416;12.952;2023-02-20T03:51:16;7.18;;;3.72;;
64375;SDS011;50700;55.416;12.952;2023-02-20T03:54:01;13.23;;;4.68;;
64375;SDS011;50700;55.416;12.952;2023-02-20T03:56:30;11.40;;;3.95;;
64375;SDS011;50700;55.416;12.952;2023-02-20T03:59:00;12.70;;;4.13;;
64375;SDS011;50700;55.416;12.952;2023-02-20T04:01:27;13.38;;;5.00;;
64375;SDS011;50700;55.416;12.952;2023-02-20T04:03:54;16.02;;;5.45;;
64375;SDS011;50700;55.416;12.952;2023-02-20T04:06:23;28.95;;;7.53;;
64375;SDS011;50700;55.416;12.952;2023-02-20T04:09:06;19.92;;;7.20;;
64375;SDS011;50700;55.416;12.952;2023-02-20T04:11:35;21.92;;;6.82;;
64375;SDS011;50700;55.416;12.952;2023-02-20T04:14:03;18.27;;;6.55;;
64375;SDS011;50700;55.416;12.952;2023-02-20T04:16:31;33.20;;;6.63;;
64375;SDS011;50700;55.416;12.952;2023-02-20T04:18:59;18.95;;;7.80;;
64375;SDS011;50700;55.416;12.952;2023-02-20T04:21:33;19.17;;;6.93;;
64375;SDS011;50700;55.416;12.952;2023-02-20T04:24:05;14.70;;;6.53;;
64375;SDS011;50700;55.416;12.952;2023-02-20T04:26:32;24.50;;;7.18;;
64375;SDS011;50700;55.416;12.952;2023-02-20T04:28:59;16.55;;;5.80;;
64375;SDS011;50700;55.416;12.952;2023-02-20T04:31:25;20.85;;;6.75;;
64375;SDS011;50700;55.416;12.952;2023-02-20T04:33:52;15.35;;;6.47;;
64375;SDS011;50700;55.416;12.952;2023-02-20T04:36:18;18.67;;;6.03;;
64375;SDS011;50700;55.416;12.952;2023-02-20T04:38:44;25.88;;;7.03;;
64375;SDS011;50700;55.416;12.952;2023-02-20T04:41:11;19.48;;;6.50;;
64375;SDS011;50700;55.416;12.952;2023-02-20T04:43:37;16.95;;;6.65;;
64375;SDS011;50700;55.416;12.952;2023-02-20T04:46:03;22.10;;;6.40;;
64375;SDS011;50700;55.416;12.952;2023-02-20T04:48:29;22.23;;;7.28;;
64375;SDS011;50700;55.416;12.952;2023-02-20T04:50:55;24.60;;;7.38;;
64375;SDS011;50700;55.416;12.952;2023-02-20T04:53:22;27.17;;;7.45;;
64375;SDS011;50700;55.416;12.952;2023-02-20T04:55:48;21.70;;;6.45;;
64375;SDS011;50700;55.416;12.952;2023-02-20T04:58:14;19.58;;;6.20;;
64375;SDS011;50700;55.416;12.952;2023-02-20T05:00:40;26.98;;;7.35;;
64375;SDS011;50700;55.416;12.952;2023-02-20T05:03:07;20.67;;;6.00;;
64375;SDS011;50700;55.416;12.952;2023-02-20T05:05:33;21.40;;;6.82;;
64375;SDS011;50700;55.416;12.952;2023-02-20T05:08:03;18.85;;;6.15;;
64375;SDS011;50700;55.416;12.952;2023-02-20T05:10:30;20.60;;;7.25;;
64375;SDS011;50700;55.416;12.952;2023-02-20T05:12:56;22.00;;;6.88;;
64375;SDS011;50700;55.416;12.952;2023-02-20T05:15:23;21.10;;;6.70;;
64375;SDS011;50700;55.416;12.952;2023-02-20T05:17:49;22.67;;;6.15;;
64375;SDS011;50700;55.416;12.952;2023-02-20T05:20:16;23.40;;;8.13;;
64375;SDS011;50700;55.416;12.952;2023-02-20T05:22:44;16.88;;;5.18;;
64375;SDS011;50700;55.416;12.952;2023-02-20T05:25:10;19.98;;;6.43;;
64375;SDS011;50700;55.416;12.952;2023-02-20T05:27:36;22.55;;;6.53;;
64375;SDS011;50700;55.416;12.952;2023-02-20T05:30:02;19.05;;;6.20;;
64375;SDS011;50700;55.416;12.952;2023-02-20T05:32:29;25.02;;;7.05;;
64375;SDS011;50700;55.416;12.952;2023-02-20T05:34:55;23.08;;;6.68;;
64375;SDS011;50700;55.416;12.952;2023-02-20T05:37:22;22.85;;;6.38;;
64375;SDS011;50700;55.416;12.952;2023-02-20T05:39:49;20.80;;;6.60;;
64375;SDS011;50700;55.416;12.952;2023-02-20T05:42:15;22.75;;;6.85;;
64375;SDS011;50700;55.416;12.952;2023-02-20T05:44:41;27.55;;;6.75;;
64375;SDS011;50700;55.416;12.952;2023-02-20T05:47:08;26.17;;;8.30;;
64375;SDS011;50700;55.416;12.952;2023-02-20T05:49:34;18.95;;;5.15;;
64375;SDS011;50700;55.416;12.952;2023-02-20T05:52:01;22.02;;;7.15;;
64375;SDS011;50700;55.416;12.952;2023-02-20T05:54:27;18.50;;;6.40;;
64375;SDS011;50700;55.416;12.952;2023-02-20T05:56:54;28.92;;;6.38;;
64375;SDS011;50700;55.416;12.952;2023-02-20T05:59:21;20.52;;;6.68;;
64375;SDS011;50700;55.416;12.952;2023-02-20T06:01:48;15.27;;;5.97;;
64375;SDS011;50700;55.416;12.952;2023-02-20T06:04:17;25.35;;;6.47;;
64375;SDS011;50700;55.416;12.952;2023-02-20T06:06:43;28.63;;;6.78;;
64375;SDS011;50700;55.416;12.952;2023-02-20T06:09:10;24.75;;;7.05;;
64375;SDS011;50700;55.416;12.952;2023-02-20T06:11:37;26.05;;;6.82;;
64375;SDS011;50700;55.416;12.952;2023-02-20T06:14:04;21.73;;;6.18;;
64375;SDS011;50700;55.416;12.952;2023-02-20T06:16:30;23.17;;;6.40;;
64375;SDS011;50700;55.416;12.952;2023-02-20T06:18:57;29.63;;;7.28;;
64375;SDS011;50700;55.416;12.952;2023-02-20T06:21:24;28.40;;;7.50;;
64375;SDS011;50700;55.416;12.952;2023-02-20T06:23:51;23.50;;;6.95;;
64375;SDS011;50700;55.416;12.952;2023-02-20T06:26:17;33.70;;;8.38;;
64375;SDS011;50700;55.416;12.952;2023-02-20T06:28:44;32.83;;;7.88;;
64375;SDS011;50700;55.416;12.952;2023-02-20T06:31:11;26.65;;;6.78;;
64375;SDS011;50700;55.416;12.952;2023-02-20T06:33:37;32.47;;;7.57;;
64375;SDS011;50700;55.416;12.952;2023-02-20T06:36:04;29.15;;;8.00;;
64375;SDS011;50700;55.416;12.952;2023-02-20T06:38:30;32.15;;;8.50;;
64375;SDS011;50700;55.416;12.952;2023-02-20T06:40:56;25.08;;;7.97;;
64375;SDS011;50700;55.416;12.952;2023-02-20T06:43:22;23.70;;;6.63;;
64375;SDS011;50700;55.416;12.952;2023-02-20T06:45:49;30.52;;;8.90;;
64375;SDS011;50700;55.416;12.952;2023-02-20T06:48:15;35.60;;;8.77;;
64375;SDS011;50700;55.416;12.952;2023-02-20T06:50:41;33.08;;;8.40;;
64375;SDS011;50700;55.416;12.952;2023-02-20T06:53:08;36.28;;;7.90;;
64375;SDS011;50700;55.416;12.952;2023-02-20T06:55:34;34.47;;;8.20;;
64375;SDS011;50700;55.416;12.952;2023-02-20T06:58:00;36.92;;;8.48;;
64375;SDS011;50700;55.416;12.952;2023-02-20T07:00:26;28.67;;;7.28;;
64375;SDS011;50700;55.416;12.952;2023-02-20T07:02:53;26.80;;;6.95;;
64375;SDS011;50700;55.416;12.952;2023-02-20T07:05:19;29.90;;;8.57;;
64375;SDS011;50700;55.416;12.952;2023-02-20T07:07:46;28.95;;;8.43;;
64375;SDS011;50700;55.416;12.952;2023-02-20T07:10:12;23.23;;;7.10;;
64375;SDS011;50700;55.416;12.952;2023-02-20T07:12:38;26.83;;;8.55;;
64375;SDS011;50700;55.416;12.952;2023-02-20T07:15:04;25.73;;;7.97;;
64375;SDS011;50700;55.416;12.952;2023-02-20T07:17:31;29.05;;;7.18;;
64375;SDS011;50700;55.416;12.952;2023-02-20T07:19:57;22.80;;;6.95;;
64375;SDS011;50700;55.416;12.952;2023-02-20T07:22:23;24.70;;;6.65;;
64375;SDS011;50700;55.416;12.952;2023-02-20T07:24:53;33.05;;;7.40;;
64375;SDS011;50700;55.416;12.952;2023-02-20T07:27:19;33.72;;;7.78;;
64375;SDS011;50700;55.416;12.952;2023-02-20T07:29:46;18.88;;;6.18;;
64375;SDS011;50700;55.416;12.952;2023-02-20T07:32:13;17.35;;;6.00;;
64375;SDS011;50700;55.416;12.952;2023-02-20T07:34:39;22.60;;;6.18;;
64375;SDS011;50700;55.416;12.952;2023-02-20T07:37:05;24.30;;;6.88;;
64375;SDS011;50700;55.416;12.952;2023-02-20T07:39:32;20.50;;;6.05;;
64375;SDS011;50700;55.416;12.952;2023-02-20T07:41:58;28.38;;;5.53;;
64375;SDS011;50700;55.416;12.952;2023-02-20T07:44:24;22.98;;;6.90;;
64375;SDS011;50700;55.416;12.952;2023-02-20T07:46:50;22.38;;;6.45;;
64375;SDS011;50700;55.416;12.952;2023-02-20T07:49:16;23.15;;;6.10;;
64375;SDS011;50700;55.416;12.952;2023-02-20T07:51:43;15.80;;;6.90;;
64375;SDS011;50700;55.416;12.952;2023-02-20T07:54:09;19.63;;;5.35;;
64375;SDS011;50700;55.416;12.952;2023-02-20T07:56:35;20.23;;;5.88;;
64375;SDS011;50700;55.416;12.952;2023-02-20T07:59:01;19.48;;;5.13;;
64375;SDS011;50700;55.416;12.952;2023-02-20T08:01:27;20.40;;;5.13;;
64375;SDS011;50700;55.416;12.952;2023-02-20T08:03:54;20.33;;;5.75;;
64375;SDS011;50700;55.416;12.952;2023-02-20T08:06:20;26.65;;;6.18;;
64375;SDS011;50700;55.416;12.952;2023-02-20T08:08:47;18.58;;;5.18;;
64375;SDS011;50700;55.416;12.952;2023-02-20T08:11:14;20.75;;;4.93;;
64375;SDS011;50700;55.416;12.952;2023-02-20T08:13:42;12.57;;;4.72;;
64375;SDS011;50700;55.416;12.952;2023-02-20T08:16:08;19.95;;;5.47;;
64375;SDS011;50700;55.416;12.952;2023-02-20T08:18:34;18.77;;;4.70;;
64375;SDS011;50700;55.416;12.952;2023-02-20T08:21:01;13.77;;;4.00;;
64375;SDS011;50700;55.416;12.952;2023-02-20T08:23:27;14.93;;;4.47;;
64375;SDS011;50700;55.416;12.952;2023-02-20T08:25:53;19.35;;;4.63;;
64375;SDS011;50700;55.416;12.952;2023-02-20T08:28:20;14.77;;;4.28;;
64375;SDS011;50700;55.416;12.952;2023-02-20T08:30:46;15.43;;;4.45;;
64375;SDS011;50700;55.416;12.952;2023-02-20T08:33:12;17.80;;;4.50;;
64375;SDS011;50700;55.416;12.952;2023-02-20T08:35:39;11.82;;;3.88;;
64375;SDS011;50700;55.416;12.952;2023-02-20T08:38:20;15.75;;;4.18;;
64375;SDS011;50700;55.416;12.952;2023-02-20T08:40:47;17.23;;;3.92;;
64375;SDS011;50700;55.416;12.952;2023-02-20T08:43:13;22.38;;;3.92;;
64375;SDS011;50700;55.416;12.952;2023-02-20T08:45:39;16.85;;;4.65;;
64375;SDS011;50700;55.416;12.952;2023-02-20T08:48:05;11.38;;;3.92;;
64375;SDS011;50700;55.416;12.952;2023-02-20T08:50:32;18.85;;;3.88;;
64375;SDS011;50700;55.416;12.952;2023-02-20T08:52:58;14.38;;;4.13;;
64375;SDS011;50700;55.416;12.952;2023-02-20T08:55:25;21.63;;;4.47;;
64375;SDS011;50700;55.416;12.952;2023-02-20T08:57:51;23.40;;;4.57;;
64375;SDS011;50700;55.416;12.952;2023-02-20T09:00:17;13.65;;;4.80;;
64375;SDS011;50700;55.416;12.952;2023-02-20T09:02:45;23.33;;;4.15;;
64375;SDS011;50700;55.416;12.952;2023-02-20T09:05:12;16.17;;;3.58;;
64375;SDS011;50700;55.416;12.952;2023-02-20T09:07:38;18.33;;;4.35;;
64375;SDS011;50700;55.416;12.952;2023-02-20T09:10:04;13.10;;;3.50;;
64375;SDS011;50700;55.416;12.952;2023-02-20T09:12:30;20.48;;;3.70;;
64375;SDS011;50700;55.416;12.952;2023-02-20T09:14:57;14.90;;;3.63;;
64375;SDS011;50700;55.416;12.952;2023-02-20T09:17:27;18.52;;;4.20;;
64375;SDS011;50700;55.416;12.952;2023-02-20T09:19:53;16.08;;;3.97;;
64375;SDS011;50700;55.416;12.952;2023-02-20T09:22:23;11.25;;;3.75;;
64375;SDS011;50700;55.416;12.952;2023-02-20T09:24:49;24.00;;;5.00;;
64375;SDS011;50700;55.416;12.952;2023-02-20T09:27:16;18.40;;;4.05;;
64375;SDS011;50700;55.416;12.952;2023-02-20T09:29:42;19.15;;;4.15;;
64375;SDS011;50700;55.416;12.952;2023-02-20T09:32:09;23.23;;;4.97;;
64375;SDS011;50700;55.416;12.952;2023-02-20T09:34:35;17.33;;;4.18;;
64375;SDS011;50700;55.416;12.952;2023-02-20T09:37:01;13.95;;;3.40;;
64375;SDS011;50700;55.416;12.952;2023-02-20T09:39:29;18.88;;;4.40;;
64375;SDS011;50700;55.416;12.952;2023-02-20T09:49:58;12.60;;;3.70;;
64375;SDS011;50700;55.416;12.952;2023-02-20T09:52:26;15.15;;;3.28;;
64375;SDS011;50700;55.416;12.952;2023-02-20T09:55:04;14.70;;;3.60;;
64375;SDS011;50700;55.416;12.952;2023-02-20T09:57:31;19.80;;;4.05;;
64375;SDS011;50700;55.416;12.952;2023-02-20T10:00:11;19.52;;;4.40;;
64375;SDS011;50700;55.416;12.952;2023-02-20T10:02:40;20.30;;;3.65;;
64375;SDS011;50700;55.416;12.952;2023-02-20T10:05:18;6.78;;;3.03;;
64375;SDS011;50700;55.416;12.952;2023-02-20T10:07:45;15.63;;;4.25;;
64375;SDS011;50700;55.416;12.952;2023-02-20T10:10:28;10.60;;;3.00;;
64375;SDS011;50700;55.416;12.952;2023-02-20T10:20:31;18.80;;;4.78;;
64375;SDS011;50700;55.416;12.952;2023-02-20T10:23:16;16.05;;;3.75;;
64375;SDS011;50700;55.416;12.952;2023-02-20T10:25:45;27.80;;;5.38;;
64375;SDS011;50700;55.416;12.952;2023-02-20T10:28:17;12.68;;;4.35;;
64375;SDS011;50700;55.416;12.952;2023-02-20T10:33:37;12.40;;;3.78;;
64375;SDS011;50700;55.416;12.952;2023-02-20T10:38:34;10.95;;;3.60;;
64375;SDS011;50700;55.416;12.952;2023-02-20T10:46:03;19.23;;;4.03;;
64375;SDS011;50700;55.416;12.952;2023-02-20T10:48:32;16.63;;;4.00;;
64375;SDS011;50700;55.416;12.952;2023-02-20T10:53:39;10.80;;;3.60;;
64375;SDS011;50700;55.416;12.952;2023-02-20T10:56:19;18.52;;;4.30;;
64375;SDS011;50700;55.416;12.952;2023-02-20T10:58:52;9.82;;;3.75;;
64375;SDS011;50700;55.416;12.952;2023-02-20T11:01:21;15.35;;;3.67;;
64375;SDS011;50700;55.416;12.952;2023-02-20T11:06:17;11.38;;;3.45;;
64375;SDS011;50700;55.416;12.952;2023-02-20T11:08:44;14.07;;;3.85;;
64375;SDS011;50700;55.416;12.952;2023-02-20T11:11:23;11.98;;;3.35;;
64375;SDS011;50700;55.416;12.952;2023-02-20T11:13:49;13.82;;;3.22;;
64375;SDS011;50700;55.416;12.952;2023-02-20T11:16:20;10.85;;;3.28;;
64375;SDS011;50700;55.416;12.952;2023-02-20T11:18:47;16.35;;;3.58;;
64375;SDS011;50700;55.416;12.952;2023-02-20T11:21:33;12.75;;;3.30;;
64375;SDS011;50700;55.416;12.952;2023-02-20T11:24:16;14.15;;;3.95;;
64375;SDS011;50700;55.416;12.952;2023-02-20T11:31:35;12.20;;;3.72;;
64375;SDS011;50700;55.416;12.952;2023-02-20T11:34:03;12.45;;;4.30;;
64375;SDS011;50700;55.416;12.952;2023-02-20T11:36:35;20.02;;;4.43;;
64375;SDS011;50700;55.416;12.952;2023-02-20T11:39:03;20.38;;;4.55;;
64375;SDS011;50700;55.416;12.952;2023-02-20T11:41:38;17.75;;;3.50;;
64375;SDS011;50700;55.416;12.952;2023-02-20T11:46:37;18.65;;;4.60;;
64375;SDS011;50700;55.416;12.952;2023-02-20T11:49:11;18.42;;;4.90;;
64375;SDS011;50700;55.416;12.952;2023-02-20T11:51:47;18.67;;;5.00;;
64375;SDS011;50700;55.416;12.952;2023-02-20T11:54:23;13.90;;;3.83;;
64375;SDS011;50700;55.416;12.952;2023-02-20T11:56:58;18.73;;;3.58;;
64375;SDS011;50700;55.416;12.952;2023-02-20T11:59:27;15.48;;;3.42;;
64375;SDS011;50700;55.416;12.952;2023-02-20T12:01:54;19.23;;;4.57;;
64375;SDS011;50700;55.416;12.952;2023-02-20T12:04:21;21.23;;;4.82;;
64375;SDS011;50700;55.416;12.952;2023-02-20T12:06:48;24.52;;;5.10;;
64375;SDS011;50700;55.416;12.952;2023-02-20T12:09:16;25.02;;;4.50;;
64375;SDS011;50700;55.416;12.952;2023-02-20T12:11:43;26.92;;;4.72;;
64375;SDS011;50700;55.416;12.952;2023-02-20T12:14:13;19.05;;;4.47;;
64375;SDS011;50700;55.416;12.952;2023-02-20T12:22:03;23.77;;;4.22;;
64375;SDS011;50700;55.416;12.952;2023-02-20T12:27:21;13.45;;;3.47;;
64375;SDS011;50700;55.416;12.952;2023-02-20T12:30:00;13.45;;;3.20;;
64375;SDS011;50700;55.416;12.952;2023-02-20T12:32:49;24.95;;;4.65;;
64375;SDS011;50700;55.416;12.952;2023-02-20T12:35:20;18.73;;;4.28;;
64375;SDS011;50700;55.416;12.952;2023-02-20T12:45:33;14.93;;;3.67;;
64375;SDS011;50700;55.416;12.952;2023-02-20T12:53:23;19.73;;;4.88;;
64375;SDS011;50700;55.416;12.952;2023-02-20T12:58:25;19.15;;;3.72;;
64375;SDS011;50700;55.416;12.952;2023-02-20T13:00:53;18.67;;;3.22;;
64375;SDS011;50700;55.416;12.952;2023-02-20T13:03:26;15.45;;;3.70;;
64375;SDS011;50700;55.416;12.952;2023-02-20T13:05:54;13.85;;;2.78;;
64375;SDS011;50700;55.416;12.952;2023-02-20T13:08:31;21.75;;;4.38;;
64375;SDS011;50700;55.416;12.952;2023-02-20T13:11:02;21.98;;;4.30;;
64375;SDS011;50700;55.416;12.952;2023-02-20T13:16:27;16.27;;;3.38;;
64375;SDS011;50700;55.416;12.952;2023-02-20T13:18:58;12.07;;;3.60;;
64375;SDS011;50700;55.416;12.952;2023-02-20T13:21:28;13.70;;;3.58;;
64375;SDS011;50700;55.416;12.952;2023-02-20T13:29:15;15.48;;;2.95;;
64375;SDS011;50700;55.416;12.952;2023-02-20T13:46:58;10.68;;;2.67;;
64375;SDS011;50700;55.416;12.952;2023-02-20T13:57:42;12.00;;;2.42;;
64375;SDS011;50700;55.416;12.952;2023-02-20T14:02:45;11.93;;;2.65;;
64375;SDS011;50700;55.416;12.952;2023-02-20T14:05:19;8.57;;;2.08;;
64375;SDS011;50700;55.416;12.952;2023-02-20T14:07:46;8.95;;;2.17;;
64375;SDS011;50700;55.416;12.952;2023-02-20T14:10:29;9.48;;;2.83;;
64375;SDS011;50700;55.416;12.952;2023-02-20T14:15:21;10.32;;;2.10;;
64375;SDS011;50700;55.416;12.952;2023-02-20T14:17:48;7.28;;;2.13;;
64375;SDS011;50700;55.416;12.952;2023-02-20T14:20:20;14.30;;;2.35;;
64375;SDS011;50700;55.416;12.952;2023-02-20T14:22:47;14.60;;;2.28;;
64375;SDS011;50700;55.416;12.952;2023-02-20T14:25:19;10.50;;;2.17;;
64375;SDS011;50700;55.416;12.952;2023-02-20T14:27:46;3.90;;;1.63;;
64375;SDS011;50700;55.416;12.952;2023-02-20T14:30:14;5.88;;;1.92;;
64375;SDS011;50700;55.416;12.952;2023-02-20T14:32:45;14.90;;;2.80;;
64375;SDS011;50700;55.416;12.952;2023-02-20T14:35:15;6.43;;;1.95;;
64375;SDS011;50700;55.416;12.952;2023-02-20T14:40:26;10.32;;;1.38;;
64375;SDS011;50700;55.416;12.952;2023-02-20T14:42:57;15.13;;;2.60;;
64375;SDS011;50700;55.416;12.952;2023-02-20T14:45:25;9.43;;;1.90;;
64375;SDS011;50700;55.416;12.952;2023-02-20T14:47:52;5.90;;;2.15;;
64375;SDS011;50700;55.416;12.952;2023-02-20T14:50:23;11.40;;;1.88;;
64375;SDS011;50700;55.416;12.952;2023-02-20T14:55:47;12.32;;;2.30;;
64375;SDS011;50700;55.416;12.952;2023-02-20T14:58:14;11.18;;;1.73;;
64375;SDS011;50700;55.416;12.952;2023-02-20T15:00:41;4.15;;;1.25;;
64375;SDS011;50700;55.416;12.952;2023-02-20T15:03:09;11.85;;;1.70;;
64375;SDS011;50700;55.416;12.952;2023-02-20T15:05:39;9.23;;;1.90;;
64375;SDS011;50700;55.416;12.952;2023-02-20T15:08:18;6.53;;;1.95;;
64375;SDS011;50700;55.416;12.952;2023-02-20T15:10:46;6.43;;;1.67;;
64375;SDS011;50700;55.416;12.952;2023-02-20T15:13:14;7.45;;;1.70;;
64375;SDS011;50700;55.416;12.952;2023-02-20T15:15:44;13.27;;;3.25;;
64375;SDS011;50700;55.416;12.952;2023-02-20T15:18:12;11.15;;;1.80;;
64375;SDS011;50700;55.416;12.952;2023-02-20T15:20:45;10.93;;;2.78;;
64375;SDS011;50700;55.416;12.952;2023-02-20T15:25:42;9.18;;;1.77;;
64375;SDS011;50700;55.416;12.952;2023-02-20T15:28:12;7.25;;;2.20;;
64375;SDS011;50700;55.416;12.952;2023-02-20T15:31:05;9.45;;;1.83;;
64375;SDS011;50700;55.416;12.952;2023-02-20T15:33:50;10.15;;;1.90;;
64375;SDS011;50700;55.416;12.952;2023-02-20T15:36:21;9.55;;;2.28;;
64375;SDS011;50700;55.416;12.952;2023-02-20T15:38:50;8.23;;;1.80;;
64375;SDS011;50700;55.416;12.952;2023-02-20T15:41:16;16.52;;;1.90;;
64375;SDS011;50700;55.416;12.952;2023-02-20T15:43:46;14.18;;;2.35;;
64375;SDS011;50700;55.416;12.952;2023-02-20T15:46:13;9.07;;;2.10;;
64375;SDS011;50700;55.416;12.952;2023-02-20T15:48:39;11.20;;;1.80;;
64375;SDS011;50700;55.416;12.952;2023-02-20T15:51:05;6.13;;;1.38;;
64375;SDS011;50700;55.416;12.952;2023-02-20T15:53:33;9.82;;;1.80;;
64375;SDS011;50700;55.416;12.952;2023-02-20T15:56:00;12.57;;;1.98;;
64375;SDS011;50700;55.416;12.952;2023-02-20T15:58:30;12.10;;;2.35;;
64375;SDS011;50700;55.416;12.952;2023-02-20T16:00:58;8.00;;;2.22;;
64375;SDS011;50700;55.416;12.952;2023-02-20T16:03:25;9.18;;;1.88;;
64375;SDS011;50700;55.416;12.952;2023-02-20T16:05:51;12.80;;;2.08;;
64375;SDS011;50700;55.416;12.952;2023-02-20T16:08:18;9.98;;;1.85;;
64375;SDS011;50700;55.416;12.952;2023-02-20T16:10:45;8.32;;;2.40;;
64375;SDS011;50700;55.416;12.952;2023-02-20T16:13:30;9.60;;;1.90;;
64375;SDS011;50700;55.416;12.952;2023-02-20T16:15:56;13.13;;;2.20;;
64375;SDS011;50700;55.416;12.952;2023-02-20T16:18:23;17.00;;;2.88;;
64375;SDS011;50700;55.416;12.952;2023-02-20T16:20:50;6.63;;;2.05;;
64375;SDS011;50700;55.416;12.952;2023-02-20T16:23:16;9.52;;;1.88;;
64375;SDS011;50700;55.416;12.952;2023-02-20T16:25:43;8.10;;;1.60;;
64375;SDS011;50700;55.416;12.952;2023-02-20T16:28:10;11.80;;;1.70;;
64375;SDS011;50700;55.416;12.952;2023-02-20T16:30:42;10.77;;;2.40;;
64375;SDS011;50700;55.416;12.952;2023-02-20T16:35:39;13.27;;;2.13;;
64375;SDS011;50700;55.416;12.952;2023-02-20T16:38:05;13.02;;;2.58;;
64375;SDS011;50700;55.416;12.952;2023-02-20T16:40:32;11.07;;;1.75;;
64375;SDS011;50700;55.416;12.952;2023-02-20T16:43:04;12.60;;;2.50;;
64375;SDS011;50700;55.416;12.952;2023-02-20T16:45:31;11.70;;;2.55;;
64375;SDS011;50700;55.416;12.952;2023-02-20T16:47:57;17.67;;;3.88;;
64375;SDS011;50700;55.416;12.952;2023-02-20T16:50:28;11.90;;;2.75;;
64375;SDS011;50700;55.416;12.952;2023-02-20T16:52:58;12.95;;;3.10;;